Nautilus — OUYX2 — position and weather

sailwx.info

Track history (hours):
 
Tides and Currents Weather Stations Pressure Air Temp Water Temp Dewpoint Dewpoint Depression Visibility Wind Speed Wind Dir Waves Ship Positions

Nautilus

Last reported at 2018-Apr-22 17:38 UTC. Time now 2018-Apr-22 21:48 UTC.
Position N 55°52' E 010°52'.

Length 120 m; draft 5 m.

Type: Ship. MMSI: 219425000.

Date/timePositionNaut miles runAvg speedWind from/ knotsBaromVisibWave heightAir tempDewpointWater temp
2018-Apr-22 17:38N 55°52' E 010°52'214.0
2018-Apr-22 17:30N 55°53' E 010°54'713.7
2018-Apr-22 17:00N 55°59' E 011°02'713.5
2018-Apr-22 16:30N 56°05' E 011°07'713.5
2018-Apr-22 16:00N 56°10' E 011°15'713.4
2018-Apr-22 15:31N 56°16' E 011°20'713.4
2018-Apr-22 15:01N 56°21' E 011°27'1913.1
2018-Apr-22 13:35N 56°37' E 011°43'212.8
2018-Apr-22 13:26N 56°39' E 011°45'612.9
2018-Apr-22 13:01N 56°44' E 011°50'712.8
2018-Apr-22 12:29N 56°51' E 011°49'713.7
2018-Apr-22 12:00N 56°57' E 011°44'713.7
2018-Apr-22 11:30N 57°03' E 011°40'713.7
2018-Apr-22 11:00N 57°10' E 011°36'713.4
2018-Apr-22 10:31N 57°16' E 011°31'713.4
2018-Apr-22 10:01N 57°22' E 011°27'713.0
2018-Apr-22 09:30N 57°28' E 011°22'612.3
2018-Apr-22 09:01N 57°32' E 011°14'510.4
2018-Apr-22 08:31N 57°36' E 011°07'510.8
2018-Apr-22 08:00N 57°39' E 010°59'510.9
2018-Apr-22 07:31N 57°43' E 010°52'611.2
2018-Apr-22 07:01N 57°47' E 010°44'510.8
2018-Apr-22 06:31N 57°48' E 010°34'611.2
2018-Apr-22 06:01N 57°48' E 010°24'611.3
2018-Apr-22 05:31N 57°49' E 010°13'611.5
2018-Apr-22 05:01N 57°50' E 010°03'611.9
2018-Apr-22 04:30N 57°50' E 009°52'612.1
2018-Apr-22 04:00N 57°50' E 009°40'612.7
2018-Apr-22 03:30N 57°51' E 009°28'612.3
2018-Apr-22 03:00N 57°53' E 009°17'612.0
2018-Apr-22 02:30N 57°53' E 009°06'611.4
2018-Apr-22 02:00N 57°54' E 008°55'511.1
2018-Apr-22 01:30N 57°55' E 008°45'611.5
2018-Apr-22 01:00N 57°57' E 008°35'611.6
2018-Apr-22 00:30N 57°59' E 008°25'611.5
2018-Apr-22 00:00N 58°02' E 008°15'611.1
2018-Apr-21 23:30N 58°04' E 008°05'510.7
2018-Apr-21 23:01N 58°08' E 007°59'0 0.8
2018-Apr-21 22:31N 58°08' E 007°59'0 0.0
2018-Apr-21 22:00N 58°08' E 007°59'0 0.0
2018-Apr-21 21:30N 58°08' E 007°59'0 0.0
2018-Apr-21 21:00N 58°08' E 007°59'0 0.0
2018-Apr-21 20:30N 58°08' E 007°59'0 0.0
2018-Apr-21 20:00N 58°08' E 007°59'0 0.0
2018-Apr-21 19:30N 58°08' E 007°59'0 0.0
2018-Apr-21 19:01N 58°08' E 007°59'0 0.0
2018-Apr-21 18:30N 58°08' E 007°59'0 0.0
2018-Apr-21 18:01N 58°08' E 007°59'0 0.0
2018-Apr-21 17:30N 58°08' E 007°59'0 0.0
2018-Apr-21 16:59N 58°08' E 007°59'0 0.0
2018-Apr-21 16:30N 58°08' E 007°59'0 0.0
2018-Apr-21 16:00N 58°08' E 007°59'0 0.0
2018-Apr-21 15:30N 58°08' E 007°59'0 0.0
2018-Apr-21 15:00N 58°08' E 007°59'0 0.0
2018-Apr-21 14:30N 58°08' E 007°59'0 0.0
2018-Apr-21 14:00N 58°08' E 007°59'0 0.0
2018-Apr-21 13:30N 58°08' E 007°59'0 0.0
2018-Apr-21 12:59N 58°08' E 007°59'0 0.0
2018-Apr-21 12:30N 58°08' E 007°59'0 0.0
2018-Apr-21 11:59N 58°08' E 007°59'0 0.0
2018-Apr-21 11:30N 58°08' E 007°59'0 0.0
2018-Apr-21 11:00N 58°08' E 007°59'0 0.0
2018-Apr-21 10:30N 58°08' E 007°59'0 0.1
2018-Apr-21 10:00N 58°08' E 007°59'3 6.9
2018-Apr-21 09:30N 58°06' E 008°03'611.2
2018-Apr-21 09:00N 58°02' E 008°11'611.7
2018-Apr-21 08:30N 58°03' E 008°22'510.9
2018-Apr-21 08:01N 58°04' E 008°32'510.7
2018-Apr-21 07:31N 58°05' E 008°43'510.8
2018-Apr-21 07:00N 58°05' E 008°53'611.1
2018-Apr-21 06:31N 58°06' E 009°03'1611.0
2018-Apr-21 05:02N 58°08' E 009°34'111.4
2018-Apr-21 04:59N 58°08' E 009°35'611.2
2018-Apr-21 04:25N 58°09' E 009°47'511.3
2018-Apr-21 04:00N 58°09' E 009°55'611.5
2018-Apr-21 03:31N 58°10' E 010°06'611.3
2018-Apr-21 03:01N 58°11' E 010°17'611.3
2018-Apr-21 02:31N 58°12' E 010°27'611.5
2018-Apr-21 02:01N 58°12' E 010°38'611.5
2018-Apr-21 01:31N 58°13' E 010°49'611.5
2018-Apr-21 01:01N 58°14' E 010°60'611.4
2018-Apr-21 00:30N 58°15' E 011°11'510.0
2018-Apr-21 00:00N 58°18' E 011°18'510.3
2018-Apr-20 23:30N 58°22' E 011°25'1 0.0
2018-Apr-20 02:01N 58°21' E 011°26'0 0.1
2018-Apr-20 01:57N 58°21' E 011°26'0 1.0
2018-Apr-20 01:28N 58°22' E 011°25'4 8.4
2018-Apr-20 01:00N 58°19' E 011°21'713.2
2018-Apr-20 00:30N 58°14' E 011°12'3 5.8
2018-Apr-19 23:58N 58°11' E 011°12'0 0.1
2018-Apr-19 23:28N 58°11' E 011°12'0 0.0
2018-Apr-19 22:58N 58°11' E 011°12'0 0.0
2018-Apr-19 22:25N 58°11' E 011°12'0 0.0
2018-Apr-19 21:58N 58°11' E 011°12'0 0.0
2018-Apr-19 21:28N 58°11' E 011°12'0 0.0
2018-Apr-19 20:55N 58°11' E 011°12'0 0.0
2018-Apr-19 20:28N 58°11' E 011°12'0 0.0
2018-Apr-19 19:58N 58°11' E 011°12'0 0.0
2018-Apr-19 19:28N 58°11' E 011°12'0 0.0
2018-Apr-19 18:58N 58°11' E 011°12'0 0.0
2018-Apr-19 18:28N 58°11' E 011°12'0 0.0
2018-Apr-19 17:58N 58°11' E 011°12'0 0.0
2018-Apr-19 17:31N 58°11' E 011°12'4 7.1
2018-Apr-19 17:00N 58°07' E 011°13'715.0
2018-Apr-19 16:30N 57°60' E 011°16'714.9
2018-Apr-19 16:01N 57°53' E 011°18'713.9
2018-Apr-19 15:30N 57°46' E 011°24'713.8
2018-Apr-19 15:00N 57°40' E 011°30'611.8
2018-Apr-19 14:30N 57°37' E 011°39'5 9.3
2018-Apr-19 14:00N 57°39' E 011°46'4 7.9
2018-Apr-19 13:30N 57°41' E 011°52'0 0.1
2018-Apr-19 12:58N 57°41' E 011°52'0 0.0
2018-Apr-19 12:28N 57°41' E 011°52'0 0.0
2018-Apr-19 11:58N 57°41' E 011°52'0 0.0
2018-Apr-19 11:28N 57°41' E 011°52'0 0.0
2018-Apr-19 10:58N 57°41' E 011°52'0 0.0
2018-Apr-19 10:28N 57°41' E 011°52'0 0.0
2018-Apr-19 09:58N 57°41' E 011°52'0 0.0
2018-Apr-19 09:28N 57°41' E 011°52'0 0.0
2018-Apr-19 08:58N 57°41' E 011°52'0 0.0
2018-Apr-19 08:28N 57°41' E 011°52'0 0.0
2018-Apr-19 07:58N 57°41' E 011°52'0 0.0
2018-Apr-19 07:28N 57°41' E 011°52'0 0.0
2018-Apr-19 06:58N 57°41' E 011°52'0 0.0
2018-Apr-19 06:28N 57°41' E 011°52'0 0.0
2018-Apr-19 05:58N 57°41' E 011°52'0 0.0
2018-Apr-19 05:28N 57°41' E 011°52'0 0.0
2018-Apr-19 04:58N 57°41' E 011°52'0 0.0
2018-Apr-19 04:28N 57°41' E 011°52'0 0.0
2018-Apr-19 03:58N 57°41' E 011°52'0 0.0
2018-Apr-19 03:28N 57°41' E 011°52'0 0.0
2018-Apr-19 02:58N 57°41' E 011°52'0 0.0
2018-Apr-19 02:30N 57°41' E 011°52'0 0.9
2018-Apr-19 02:00N 57°41' E 011°51'5 9.3
2018-Apr-19 01:30N 57°39' E 011°44'611.6
2018-Apr-19 01:01N 57°34' E 011°40'0 0.2
2018-Apr-19 00:28N 57°34' E 011°40'0 0.0
2018-Apr-18 23:58N 57°34' E 011°40'0 0.1
2018-Apr-18 23:28N 57°34' E 011°40'0 0.0
2018-Apr-18 22:58N 57°34' E 011°40'0 0.0
2018-Apr-18 22:28N 57°34' E 011°40'0 0.0
2018-Apr-18 21:58N 57°34' E 011°40'0 0.0
2018-Apr-18 21:28N 57°34' E 011°40'0 0.0
2018-Apr-18 20:58N 57°34' E 011°40'0 0.0
2018-Apr-18 20:28N 57°34' E 011°40'0 0.0
2018-Apr-18 19:58N 57°34' E 011°40'0 0.0
2018-Apr-18 19:28N 57°34' E 011°40'0 0.0
2018-Apr-18 18:58N 57°34' E 011°40'0 0.0
2018-Apr-18 18:28N 57°34' E 011°40'0 0.0
2018-Apr-18 17:59N 57°34' E 011°40'0 0.0
2018-Apr-18 17:30N 57°34' E 011°40'0 0.3
2018-Apr-18 17:00N 57°34' E 011°40'4 8.3
2018-Apr-18 16:30N 57°30' E 011°39'713.8
2018-Apr-18 16:01N 57°23' E 011°45'713.8
2018-Apr-18 15:31N 57°17' E 011°51'714.0
2018-Apr-18 15:00N 57°11' E 011°55'714.0
2018-Apr-18 14:31N 57°04' E 011°59'1414.1
2018-Apr-18 13:30N 56°50' E 012°06'713.5
2018-Apr-18 13:00N 56°44' E 012°10'613.0
2018-Apr-18 12:30N 56°38' E 012°14'712.7
2018-Apr-18 11:56N 56°31' E 012°18'512.5
2018-Apr-18 11:30N 56°26' E 012°20'1413.2
2018-Apr-18 10:25N 56°12' E 012°29'512.9
2018-Apr-18 10:00N 56°07' E 012°33'713.2
2018-Apr-18 09:30N 56°02' E 012°40'713.5
2018-Apr-18 09:00N 55°56' E 012°44'612.6
2018-Apr-18 08:30N 55°49' E 012°45'613.1
2018-Apr-18 08:00N 55°44' E 012°52'612.6
2018-Apr-18 07:30N 55°38' E 012°57'713.2
2018-Apr-18 07:00N 55°34' E 012°48'713.4
2018-Apr-18 06:30N 55°28' E 012°42'714.1
2018-Apr-18 06:00N 55°21' E 012°40'611.6
2018-Apr-18 05:31N 55°17' E 012°47'713.5
2018-Apr-18 05:01N 55°16' E 012°59'713.7
2018-Apr-18 04:30N 55°16' E 013°11'813.5
2018-Apr-18 03:54N 55°15' E 013°25'813.6
2018-Apr-18 03:19N 55°15' E 013°39'513.8
2018-Apr-18 02:57N 55°14' E 013°48'713.6
2018-Apr-18 02:28N 55°14' E 013°60'613.7
2018-Apr-18 02:01N 55°14' E 014°10'612.2
2018-Apr-18 01:31N 55°17' E 014°20'713.7
2018-Apr-18 01:01N 55°22' E 014°27'713.3
2018-Apr-18 00:30N 55°27' E 014°35'713.3
2018-Apr-18 00:00N 55°30' E 014°45'713.2
2018-Apr-17 23:30N 55°33' E 014°56'713.3
2018-Apr-17 23:00N 55°36' E 015°06'713.3
2018-Apr-17 22:30N 55°40' E 015°16'713.4
2018-Apr-17 22:01N 55°43' E 015°26'713.5
2018-Apr-17 21:31N 55°47' E 015°36'713.4
2018-Apr-17 21:01N 55°51' E 015°46'713.5
2018-Apr-17 20:31N 55°55' E 015°54'713.3
2018-Apr-17 20:00N 56°01' E 016°00'713.7
2018-Apr-17 19:31N 56°08' E 016°05'713.8
2018-Apr-17 19:00N 56°14' E 016°09'713.8
2018-Apr-17 18:30N 56°21' E 016°13'713.8
2018-Apr-17 18:00N 56°27' E 016°16'713.7
2018-Apr-17 17:30N 56°34' E 016°19'611.3
2018-Apr-17 17:00N 56°39' E 016°23'0 0.0
2018-Apr-17 07:34N 56°39' E 016°23'0 0.0
2018-Apr-17 07:25N 56°39' E 016°23'1 2.6
2018-Apr-17 07:00N 56°38' E 016°22'4 8.0
2018-Apr-17 06:30N 56°35' E 016°19'713.3
2018-Apr-17 06:00N 56°28' E 016°17'713.4
2018-Apr-17 05:30N 56°22' E 016°14'713.4
2018-Apr-17 05:00N 56°15' E 016°10'713.3
2018-Apr-17 04:30N 56°09' E 016°06'713.3
2018-Apr-17 04:00N 56°03' E 016°02'713.3
2018-Apr-17 03:30N 55°56' E 015°60'612.7
2018-Apr-17 03:00N 55°51' E 015°54'713.1
2018-Apr-17 02:30N 55°46' E 015°47'713.6
2018-Apr-17 02:00N 55°42' E 015°36'713.7
2018-Apr-17 01:30N 55°39' E 015°26'713.6
2018-Apr-17 01:00N 55°36' E 015°15'713.5
2018-Apr-17 00:30N 55°32' E 015°05'713.6
2018-Apr-17 00:00N 55°29' E 014°54'713.6
2018-Apr-16 23:30N 55°26' E 014°44'713.1
2018-Apr-16 22:59N 55°22' E 014°35'713.5
2018-Apr-16 22:26N 55°16' E 014°26'613.7
2018-Apr-16 22:00N 55°11' E 014°20'713.6
2018-Apr-16 21:30N 55°10' E 014°08'913.5
2018-Apr-16 20:48N 55°10' E 013°51'413.2
2018-Apr-16 20:29N 55°10' E 013°44'613.1
2018-Apr-16 20:00N 55°10' E 013°33'713.4
2018-Apr-16 19:30N 55°11' E 013°21'713.5
2018-Apr-16 19:00N 55°12' E 013°10'713.5
2018-Apr-16 18:30N 55°13' E 012°58'713.6
2018-Apr-16 17:58N 55°16' E 012°46'612.1
2018-Apr-16 17:30N 55°19' E 012°38'613.1
2018-Apr-16 17:00N 55°26' E 012°40'612.4
2018-Apr-16 16:30N 55°31' E 012°45'612.0
2018-Apr-16 16:00N 55°36' E 012°52'510.9
2018-Apr-16 15:31N 55°39' E 012°59'2 3.0
2018-Apr-16 14:58N 55°38' E 013°01'0 0.0
2018-Apr-16 14:28N 55°38' E 013°01'0 0.0
2018-Apr-16 13:58N 55°38' E 013°01'0 0.0
2018-Apr-16 13:28N 55°38' E 013°01'0 0.0
2018-Apr-16 12:58N 55°38' E 013°01'0 0.0
2018-Apr-16 12:28N 55°38' E 013°01'0 0.0
2018-Apr-16 11:58N 55°38' E 013°01'0 0.0
2018-Apr-16 11:28N 55°38' E 013°01'0 0.0
2018-Apr-16 10:52N 55°38' E 013°01'0 0.0
2018-Apr-16 10:28N 55°38' E 013°01'0 0.0
2018-Apr-16 09:52N 55°38' E 013°01'0 0.0
2018-Apr-16 09:30N 55°38' E 013°01'0 0.0
2018-Apr-16 09:00N 55°38' E 013°01'0 0.0
2018-Apr-16 08:30N 55°38' E 013°01'0 0.0
2018-Apr-16 08:00N 55°38' E 013°01'0 0.0
2018-Apr-16 07:31N 55°38' E 013°01'0 0.0
2018-Apr-16 07:00N 55°38' E 013°01'0 0.0
2018-Apr-16 06:30N 55°38' E 013°01'2 3.0
2018-Apr-16 06:00N 55°39' E 012°59'3 5.5
2018-Apr-16 05:30N 55°42' E 012°57'0 0.1
2018-Apr-16 05:00N 55°42' E 012°57'0 0.0
2018-Apr-16 04:30N 55°42' E 012°57'0 0.0
2018-Apr-16 04:00N 55°42' E 012°57'0 0.0
2018-Apr-16 03:30N 55°42' E 012°57'0 0.0
2018-Apr-16 02:54N 55°42' E 012°57'0 0.0
2018-Apr-16 02:30N 55°42' E 012°57'0 0.0
2018-Apr-16 01:15N 55°42' E 012°57'0 0.1
2018-Apr-16 01:00N 55°42' E 012°57'0 0.0
2018-Apr-16 00:30N 55°42' E 012°57'0 0.0
2018-Apr-15 22:54N 55°42' E 012°57'0 0.0
2018-Apr-15 22:30N 55°42' E 012°57'0 0.0
2018-Apr-15 21:57N 55°42' E 012°57'0 0.0
2018-Apr-15 17:39N 55°42' E 012°57'0 0.2
2018-Apr-15 17:30N 55°42' E 012°57'1 2.8
2018-Apr-15 17:00N 55°42' E 012°54'611.8
2018-Apr-15 16:30N 55°47' E 012°48'612.5
2018-Apr-15 16:00N 55°52' E 012°41'611.0
2018-Apr-15 15:30N 55°57' E 012°40'611.6
2018-Apr-15 15:00N 56°03' E 012°39'612.0
2018-Apr-15 14:30N 56°07' E 012°31'6111.9
2018-Apr-15 09:21N 57°06' E 011°57'412.7
2018-Apr-15 09:00N 57°10' E 011°54'612.5
2018-Apr-15 08:30N 57°16' E 011°50'612.5
2018-Apr-15 08:00N 57°21' E 011°46'612.2
2018-Apr-15 07:30N 57°27' E 011°41'612.1
2018-Apr-15 07:00N 57°33' E 011°37'612.3
2018-Apr-15 06:30N 57°38' E 011°42'611.4
2018-Apr-15 06:00N 57°41' E 011°51'1 1.2
2018-Apr-15 05:29N 57°41' E 011°52'0 0.0
2018-Apr-15 04:59N 57°41' E 011°52'0 0.0
2018-Apr-15 04:29N 57°41' E 011°52'0 0.0
2018-Apr-15 03:59N 57°41' E 011°52'0 0.0
2018-Apr-15 03:29N 57°41' E 011°52'0 0.0
2018-Apr-15 02:59N 57°41' E 011°52'0 0.0
2018-Apr-15 02:29N 57°41' E 011°52'0 0.0
2018-Apr-15 01:59N 57°41' E 011°52'0 0.0
2018-Apr-15 01:29N 57°41' E 011°52'0 0.0
2018-Apr-15 00:59N 57°41' E 011°52'0 0.0
2018-Apr-15 00:29N 57°41' E 011°52'0 0.0
2018-Apr-14 23:59N 57°41' E 011°52'0 0.0
2018-Apr-14 23:29N 57°41' E 011°52'0 0.0
2018-Apr-14 22:59N 57°41' E 011°52'0 0.0
2018-Apr-14 22:29N 57°41' E 011°52'0 0.0
2018-Apr-14 21:59N 57°41' E 011°52'0 0.0
2018-Apr-14 21:29N 57°41' E 011°52'0 0.0
2018-Apr-14 20:59N 57°41' E 011°52'0 0.0
2018-Apr-14 20:29N 57°41' E 011°52'0 0.0
2018-Apr-14 19:59N 57°41' E 011°52'0 0.0
2018-Apr-14 19:29N 57°41' E 011°52'0 0.0
2018-Apr-14 18:59N 57°41' E 011°52'0 0.0
2018-Apr-14 18:29N 57°41' E 011°52'0 0.0
2018-Apr-14 17:59N 57°41' E 011°52'0 0.0
2018-Apr-14 17:29N 57°41' E 011°52'0 0.0
2018-Apr-14 16:59N 57°41' E 011°52'0 0.0
2018-Apr-14 16:29N 57°41' E 011°52'0 0.0
2018-Apr-14 15:56N 57°41' E 011°52'0 0.0
2018-Apr-14 15:29N 57°41' E 011°52'0 0.0
2018-Apr-14 14:59N 57°41' E 011°52'0 0.0
2018-Apr-14 14:30N 57°41' E 011°52'0 0.0
2018-Apr-14 14:00N 57°41' E 011°52'0 0.0
2018-Apr-14 13:30N 57°41' E 011°52'0 0.3
2018-Apr-14 13:00N 57°41' E 011°52'3 5.3
2018-Apr-14 12:30N 57°40' E 011°47'612.9
2018-Apr-14 12:00N 57°35' E 011°39'3 5.7
2018-Apr-14 11:30N 57°33' E 011°39'0 0.1
2018-Apr-14 10:58N 57°33' E 011°39'0 0.0
2018-Apr-14 10:28N 57°33' E 011°39'0 0.1
2018-Apr-14 09:58N 57°33' E 011°39'0 0.0
2018-Apr-14 09:28N 57°33' E 011°39'0 0.0
2018-Apr-14 08:58N 57°33' E 011°39'0 0.0
2018-Apr-14 08:28N 57°33' E 011°39'0 0.0
2018-Apr-14 07:58N 57°33' E 011°39'0 0.0
2018-Apr-14 07:28N 57°32' E 011°39'0 0.0
2018-Apr-14 06:58N 57°32' E 011°39'0 0.0
2018-Apr-14 06:28N 57°32' E 011°39'0 0.0
2018-Apr-14 05:58N 57°33' E 011°39'0 0.0
2018-Apr-14 05:28N 57°33' E 011°39'0 0.0
2018-Apr-14 04:58N 57°33' E 011°39'0 0.0
2018-Apr-14 04:28N 57°32' E 011°39'0 0.0
2018-Apr-14 03:58N 57°32' E 011°39'0 0.0
2018-Apr-14 03:28N 57°32' E 011°39'0 0.0
2018-Apr-14 02:58N 57°32' E 011°39'0 0.0
2018-Apr-14 02:28N 57°33' E 011°39'0 0.0
2018-Apr-14 01:58N 57°33' E 011°39'0 0.1
2018-Apr-14 01:28N 57°32' E 011°39'0 0.0
2018-Apr-14 00:58N 57°33' E 011°39'0 0.0
2018-Apr-14 00:28N 57°33' E 011°39'0 0.0
2018-Apr-13 23:58N 57°33' E 011°39'0 0.0
2018-Apr-13 23:28N 57°33' E 011°39'0 0.0
2018-Apr-13 22:58N 57°33' E 011°39'0 0.0
2018-Apr-13 22:25N 57°33' E 011°39'0 0.0
2018-Apr-13 21:58N 57°33' E 011°39'0 0.0
2018-Apr-13 21:28N 57°33' E 011°39'0 0.0
2018-Apr-13 20:58N 57°33' E 011°39'0 0.0
2018-Apr-13 20:28N 57°33' E 011°39'0 0.0
2018-Apr-13 19:58N 57°33' E 011°39'0 0.0
2018-Apr-13 19:28N 57°33' E 011°39'0 0.0
2018-Apr-13 18:58N 57°33' E 011°39'0 0.0
2018-Apr-13 18:28N 57°32' E 011°39'0 0.0
2018-Apr-13 17:58N 57°32' E 011°39'0 0.0
2018-Apr-13 17:28N 57°32' E 011°39'0 0.0
2018-Apr-13 16:58N 57°32' E 011°39'0 0.0
2018-Apr-13 16:28N 57°32' E 011°39'0 0.0
2018-Apr-13 15:58N 57°33' E 011°39'0 0.0
2018-Apr-13 15:28N 57°33' E 011°39'0 0.0
2018-Apr-13 14:58N 57°33' E 011°39'0 0.2
2018-Apr-13 14:30N 57°33' E 011°39'2 4.9
2018-Apr-13 14:00N 57°30' E 011°38'5 9.4
2018-Apr-13 13:30N 57°26' E 011°42'5 9.7
2018-Apr-13 13:00N 57°22' E 011°47'5 9.8
2018-Apr-13 12:30N 57°17' E 011°51'5 9.6
2018-Apr-13 12:00N 57°13' E 011°54'5 9.6
2018-Apr-13 11:30N 57°08' E 011°57'5 9.7
2018-Apr-13 10:58N 57°03' E 011°60'56 9.4
2018-Apr-13 05:02N 56°10' E 012°29'011.2
2018-Apr-13 05:00N 56°10' E 012°30'612.2
2018-Apr-13 04:30N 56°05' E 012°36'612.7
2018-Apr-13 04:00N 55°59' E 012°41'611.9
2018-Apr-13 03:31N 55°54' E 012°45'611.5
2018-Apr-13 03:00N 55°48' E 012°47'612.9
2018-Apr-13 02:30N 55°43' E 012°54'510.1
2018-Apr-13 02:00N 55°38' E 012°55'611.5
2018-Apr-13 01:31N 55°34' E 012°48'611.3
2018-Apr-13 01:00N 55°29' E 012°43'611.1
2018-Apr-13 00:30N 55°23' E 012°41'510.1
2018-Apr-13 00:00N 55°18' E 012°41'612.6
2018-Apr-12 23:30N 55°16' E 012°51'  
Track history (hours):
 
Tides and Currents Weather Stations Pressure Air Temp Water Temp Dewpoint Dewpoint Depression Visibility Wind Speed Wind Dir Waves Ship Positions

Nautilus

Last reported at 2018-Apr-22 17:38 UTC. Time now 2018-Apr-22 21:48 UTC.
Position N 55°52' E 010°52'.

Length 120 m; draft 5 m.

Type: Ship. MMSI: 219425000.

Date/timePositionNaut miles runAvg speedWind from/ knotsBaromVisibWave heightAir tempDewpointWater temp
2018-Apr-22 17:38N 55°52' E 010°52'214.0
2018-Apr-22 17:30N 55°53' E 010°54'713.7
2018-Apr-22 17:00N 55°59' E 011°02'713.5
2018-Apr-22 16:30N 56°05' E 011°07'713.5
2018-Apr-22 16:00N 56°10' E 011°15'713.4
2018-Apr-22 15:31N 56°16' E 011°20'713.4
2018-Apr-22 15:01N 56°21' E 011°27'1913.1
2018-Apr-22 13:35N 56°37' E 011°43'212.8
2018-Apr-22 13:26N 56°39' E 011°45'612.9
2018-Apr-22 13:01N 56°44' E 011°50'712.8
2018-Apr-22 12:29N 56°51' E 011°49'713.7
2018-Apr-22 12:00N 56°57' E 011°44'713.7
2018-Apr-22 11:30N 57°03' E 011°40'713.7
2018-Apr-22 11:00N 57°10' E 011°36'713.4
2018-Apr-22 10:31N 57°16' E 011°31'713.4
2018-Apr-22 10:01N 57°22' E 011°27'713.0
2018-Apr-22 09:30N 57°28' E 011°22'612.3
2018-Apr-22 09:01N 57°32' E 011°14'510.4
2018-Apr-22 08:31N 57°36' E 011°07'510.8
2018-Apr-22 08:00N 57°39' E 010°59'510.9
2018-Apr-22 07:31N 57°43' E 010°52'611.2
2018-Apr-22 07:01N 57°47' E 010°44'510.8
2018-Apr-22 06:31N 57°48' E 010°34'611.2
2018-Apr-22 06:01N 57°48' E 010°24'611.3
2018-Apr-22 05:31N 57°49' E 010°13'611.5
2018-Apr-22 05:01N 57°50' E 010°03'611.9
2018-Apr-22 04:30N 57°50' E 009°52'612.1
2018-Apr-22 04:00N 57°50' E 009°40'612.7
2018-Apr-22 03:30N 57°51' E 009°28'612.3
2018-Apr-22 03:00N 57°53' E 009°17'612.0
2018-Apr-22 02:30N 57°53' E 009°06'611.4
2018-Apr-22 02:00N 57°54' E 008°55'511.1
2018-Apr-22 01:30N 57°55' E 008°45'611.5
2018-Apr-22 01:00N 57°57' E 008°35'611.6
2018-Apr-22 00:30N 57°59' E 008°25'611.5
2018-Apr-22 00:00N 58°02' E 008°15'611.1
2018-Apr-21 23:30N 58°04' E 008°05'510.7
2018-Apr-21 23:01N 58°08' E 007°59'0 0.8
2018-Apr-21 22:31N 58°08' E 007°59'0 0.0
2018-Apr-21 22:00N 58°08' E 007°59'0 0.0
2018-Apr-21 21:30N 58°08' E 007°59'0 0.0
2018-Apr-21 21:00N 58°08' E 007°59'0 0.0
2018-Apr-21 20:30N 58°08' E 007°59'0 0.0
2018-Apr-21 20:00N 58°08' E 007°59'0 0.0
2018-Apr-21 19:30N 58°08' E 007°59'0 0.0
2018-Apr-21 19:01N 58°08' E 007°59'0 0.0
2018-Apr-21 18:30N 58°08' E 007°59'0 0.0
2018-Apr-21 18:01N 58°08' E 007°59'0 0.0
2018-Apr-21 17:30N 58°08' E 007°59'0 0.0
2018-Apr-21 16:59N 58°08' E 007°59'0 0.0
2018-Apr-21 16:30N 58°08' E 007°59'0 0.0
2018-Apr-21 16:00N 58°08' E 007°59'0 0.0
2018-Apr-21 15:30N 58°08' E 007°59'0 0.0
2018-Apr-21 15:00N 58°08' E 007°59'0 0.0
2018-Apr-21 14:30N 58°08' E 007°59'0 0.0
2018-Apr-21 14:00N 58°08' E 007°59'0 0.0
2018-Apr-21 13:30N 58°08' E 007°59'0 0.0
2018-Apr-21 12:59N 58°08' E 007°59'0 0.0
2018-Apr-21 12:30N 58°08' E 007°59'0 0.0
2018-Apr-21 11:59N 58°08' E 007°59'0 0.0
2018-Apr-21 11:30N 58°08' E 007°59'0 0.0
2018-Apr-21 11:00N 58°08' E 007°59'0 0.0
2018-Apr-21 10:30N 58°08' E 007°59'0 0.1
2018-Apr-21 10:00N 58°08' E 007°59'3 6.9
2018-Apr-21 09:30N 58°06' E 008°03'611.2
2018-Apr-21 09:00N 58°02' E 008°11'611.7
2018-Apr-21 08:30N 58°03' E 008°22'510.9
2018-Apr-21 08:01N 58°04' E 008°32'510.7
2018-Apr-21 07:31N 58°05' E 008°43'510.8
2018-Apr-21 07:00N 58°05' E 008°53'611.1
2018-Apr-21 06:31N 58°06' E 009°03'1611.0
2018-Apr-21 05:02N 58°08' E 009°34'111.4
2018-Apr-21 04:59N 58°08' E 009°35'611.2
2018-Apr-21 04:25N 58°09' E 009°47'511.3
2018-Apr-21 04:00N 58°09' E 009°55'611.5
2018-Apr-21 03:31N 58°10' E 010°06'611.3
2018-Apr-21 03:01N 58°11' E 010°17'611.3
2018-Apr-21 02:31N 58°12' E 010°27'611.5
2018-Apr-21 02:01N 58°12' E 010°38'611.5
2018-Apr-21 01:31N 58°13' E 010°49'611.5
2018-Apr-21 01:01N 58°14' E 010°60'611.4
2018-Apr-21 00:30N 58°15' E 011°11'510.0
2018-Apr-21 00:00N 58°18' E 011°18'510.3
2018-Apr-20 23:30N 58°22' E 011°25'1 0.0
2018-Apr-20 02:01N 58°21' E 011°26'0 0.1
2018-Apr-20 01:57N 58°21' E 011°26'0 1.0
2018-Apr-20 01:28N 58°22' E 011°25'4 8.4
2018-Apr-20 01:00N 58°19' E 011°21'713.2
2018-Apr-20 00:30N 58°14' E 011°12'3 5.8
2018-Apr-19 23:58N 58°11' E 011°12'0 0.1
2018-Apr-19 23:28N 58°11' E 011°12'0 0.0
2018-Apr-19 22:58N 58°11' E 011°12'0 0.0
2018-Apr-19 22:25N 58°11' E 011°12'0 0.0
2018-Apr-19 21:58N 58°11' E 011°12'0 0.0
2018-Apr-19 21:28N 58°11' E 011°12'0 0.0
2018-Apr-19 20:55N 58°11' E 011°12'0 0.0
2018-Apr-19 20:28N 58°11' E 011°12'0 0.0
2018-Apr-19 19:58N 58°11' E 011°12'0 0.0
2018-Apr-19 19:28N 58°11' E 011°12'0 0.0
2018-Apr-19 18:58N 58°11' E 011°12'0 0.0
2018-Apr-19 18:28N 58°11' E 011°12'0 0.0
2018-Apr-19 17:58N 58°11' E 011°12'0 0.0
2018-Apr-19 17:31N 58°11' E 011°12'4 7.1
2018-Apr-19 17:00N 58°07' E 011°13'715.0
2018-Apr-19 16:30N 57°60' E 011°16'714.9
2018-Apr-19 16:01N 57°53' E 011°18'713.9
2018-Apr-19 15:30N 57°46' E 011°24'713.8
2018-Apr-19 15:00N 57°40' E 011°30'611.8
2018-Apr-19 14:30N 57°37' E 011°39'5 9.3
2018-Apr-19 14:00N 57°39' E 011°46'4 7.9
2018-Apr-19 13:30N 57°41' E 011°52'0 0.1
2018-Apr-19 12:58N 57°41' E 011°52'0 0.0
2018-Apr-19 12:28N 57°41' E 011°52'0 0.0
2018-Apr-19 11:58N 57°41' E 011°52'0 0.0
2018-Apr-19 11:28N 57°41' E 011°52'0 0.0
2018-Apr-19 10:58N 57°41' E 011°52'0 0.0
2018-Apr-19 10:28N 57°41' E 011°52'0 0.0
2018-Apr-19 09:58N 57°41' E 011°52'0 0.0
2018-Apr-19 09:28N 57°41' E 011°52'0 0.0
2018-Apr-19 08:58N 57°41' E 011°52'0 0.0
2018-Apr-19 08:28N 57°41' E 011°52'0 0.0
2018-Apr-19 07:58N 57°41' E 011°52'0 0.0
2018-Apr-19 07:28N 57°41' E 011°52'0 0.0
2018-Apr-19 06:58N 57°41' E 011°52'0 0.0
2018-Apr-19 06:28N 57°41' E 011°52'0 0.0
2018-Apr-19 05:58N 57°41' E 011°52'0 0.0
2018-Apr-19 05:28N 57°41' E 011°52'0 0.0
2018-Apr-19 04:58N 57°41' E 011°52'0 0.0
2018-Apr-19 04:28N 57°41' E 011°52'0 0.0
2018-Apr-19 03:58N 57°41' E 011°52'0 0.0
2018-Apr-19 03:28N 57°41' E 011°52'0 0.0
2018-Apr-19 02:58N 57°41' E 011°52'0 0.0
2018-Apr-19 02:30N 57°41' E 011°52'0 0.9
2018-Apr-19 02:00N 57°41' E 011°51'5 9.3
2018-Apr-19 01:30N 57°39' E 011°44'611.6
2018-Apr-19 01:01N 57°34' E 011°40'0 0.2
2018-Apr-19 00:28N 57°34' E 011°40'0 0.0
2018-Apr-18 23:58N 57°34' E 011°40'0 0.1
2018-Apr-18 23:28N 57°34' E 011°40'0 0.0
2018-Apr-18 22:58N 57°34' E 011°40'0 0.0
2018-Apr-18 22:28N 57°34' E 011°40'0 0.0
2018-Apr-18 21:58N 57°34' E 011°40'0 0.0
2018-Apr-18 21:28N 57°34' E 011°40'0 0.0
2018-Apr-18 20:58N 57°34' E 011°40'0 0.0
2018-Apr-18 20:28N 57°34' E 011°40'0 0.0
2018-Apr-18 19:58N 57°34' E 011°40'0 0.0
2018-Apr-18 19:28N 57°34' E 011°40'0 0.0
2018-Apr-18 18:58N 57°34' E 011°40'0 0.0
2018-Apr-18 18:28N 57°34' E 011°40'0 0.0
2018-Apr-18 17:59N 57°34' E 011°40'0 0.0
2018-Apr-18 17:30N 57°34' E 011°40'0 0.3
2018-Apr-18 17:00N 57°34' E 011°40'4 8.3
2018-Apr-18 16:30N 57°30' E 011°39'713.8
2018-Apr-18 16:01N 57°23' E 011°45'713.8
2018-Apr-18 15:31N 57°17' E 011°51'714.0
2018-Apr-18 15:00N 57°11' E 011°55'714.0
2018-Apr-18 14:31N 57°04' E 011°59'1414.1
2018-Apr-18 13:30N 56°50' E 012°06'713.5
2018-Apr-18 13:00N 56°44' E 012°10'613.0
2018-Apr-18 12:30N 56°38' E 012°14'712.7
2018-Apr-18 11:56N 56°31' E 012°18'512.5
2018-Apr-18 11:30N 56°26' E 012°20'1413.2
2018-Apr-18 10:25N 56°12' E 012°29'512.9
2018-Apr-18 10:00N 56°07' E 012°33'713.2
2018-Apr-18 09:30N 56°02' E 012°40'713.5
2018-Apr-18 09:00N 55°56' E 012°44'612.6
2018-Apr-18 08:30N 55°49' E 012°45'613.1
2018-Apr-18 08:00N 55°44' E 012°52'612.6
2018-Apr-18 07:30N 55°38' E 012°57'713.2
2018-Apr-18 07:00N 55°34' E 012°48'713.4
2018-Apr-18 06:30N 55°28' E 012°42'714.1
2018-Apr-18 06:00N 55°21' E 012°40'611.6
2018-Apr-18 05:31N 55°17' E 012°47'713.5
2018-Apr-18 05:01N 55°16' E 012°59'713.7
2018-Apr-18 04:30N 55°16' E 013°11'813.5
2018-Apr-18 03:54N 55°15' E 013°25'813.6
2018-Apr-18 03:19N 55°15' E 013°39'513.8
2018-Apr-18 02:57N 55°14' E 013°48'713.6
2018-Apr-18 02:28N 55°14' E 013°60'613.7
2018-Apr-18 02:01N 55°14' E 014°10'612.2
2018-Apr-18 01:31N 55°17' E 014°20'713.7
2018-Apr-18 01:01N 55°22' E 014°27'713.3
2018-Apr-18 00:30N 55°27' E 014°35'713.3
2018-Apr-18 00:00N 55°30' E 014°45'713.2
2018-Apr-17 23:30N 55°33' E 014°56'713.3
2018-Apr-17 23:00N 55°36' E 015°06'713.3
2018-Apr-17 22:30N 55°40' E 015°16'713.4
2018-Apr-17 22:01N 55°43' E 015°26'713.5
2018-Apr-17 21:31N 55°47' E 015°36'713.4
2018-Apr-17 21:01N 55°51' E 015°46'713.5
2018-Apr-17 20:31N 55°55' E 015°54'713.3
2018-Apr-17 20:00N 56°01' E 016°00'713.7
2018-Apr-17 19:31N 56°08' E 016°05'713.8
2018-Apr-17 19:00N 56°14' E 016°09'713.8
2018-Apr-17 18:30N 56°21' E 016°13'713.8
2018-Apr-17 18:00N 56°27' E 016°16'713.7
2018-Apr-17 17:30N 56°34' E 016°19'611.3
2018-Apr-17 17:00N 56°39' E 016°23'0 0.0
2018-Apr-17 07:34N 56°39' E 016°23'0 0.0
2018-Apr-17 07:25N 56°39' E 016°23'1 2.6
2018-Apr-17 07:00N 56°38' E 016°22'4 8.0
2018-Apr-17 06:30N 56°35' E 016°19'713.3
2018-Apr-17 06:00N 56°28' E 016°17'713.4
2018-Apr-17 05:30N 56°22' E 016°14'713.4
2018-Apr-17 05:00N 56°15' E 016°10'713.3
2018-Apr-17 04:30N 56°09' E 016°06'713.3
2018-Apr-17 04:00N 56°03' E 016°02'713.3
2018-Apr-17 03:30N 55°56' E 015°60'612.7
2018-Apr-17 03:00N 55°51' E 015°54'713.1
2018-Apr-17 02:30N 55°46' E 015°47'713.6
2018-Apr-17 02:00N 55°42' E 015°36'713.7
2018-Apr-17 01:30N 55°39' E 015°26'713.6
2018-Apr-17 01:00N 55°36' E 015°15'713.5
2018-Apr-17 00:30N 55°32' E 015°05'713.6
2018-Apr-17 00:00N 55°29' E 014°54'713.6
2018-Apr-16 23:30N 55°26' E 014°44'713.1
2018-Apr-16 22:59N 55°22' E 014°35'713.5
2018-Apr-16 22:26N 55°16' E 014°26'613.7
2018-Apr-16 22:00N 55°11' E 014°20'713.6
2018-Apr-16 21:30N 55°10' E 014°08'913.5
2018-Apr-16 20:48N 55°10' E 013°51'413.2
2018-Apr-16 20:29N 55°10' E 013°44'613.1
2018-Apr-16 20:00N 55°10' E 013°33'713.4
2018-Apr-16 19:30N 55°11' E 013°21'713.5
2018-Apr-16 19:00N 55°12' E 013°10'713.5
2018-Apr-16 18:30N 55°13' E 012°58'713.6
2018-Apr-16 17:58N 55°16' E 012°46'612.1
2018-Apr-16 17:30N 55°19' E 012°38'613.1
2018-Apr-16 17:00N 55°26' E 012°40'612.4
2018-Apr-16 16:30N 55°31' E 012°45'612.0
2018-Apr-16 16:00N 55°36' E 012°52'510.9
2018-Apr-16 15:31N 55°39' E 012°59'2 3.0
2018-Apr-16 14:58N 55°38' E 013°01'0 0.0
2018-Apr-16 14:28N 55°38' E 013°01'0 0.0
2018-Apr-16 13:58N 55°38' E 013°01'0 0.0
2018-Apr-16 13:28N 55°38' E 013°01'0 0.0
2018-Apr-16 12:58N 55°38' E 013°01'0 0.0
2018-Apr-16 12:28N 55°38' E 013°01'0 0.0
2018-Apr-16 11:58N 55°38' E 013°01'0 0.0
2018-Apr-16 11:28N 55°38' E 013°01'0 0.0
2018-Apr-16 10:52N 55°38' E 013°01'0 0.0
2018-Apr-16 10:28N 55°38' E 013°01'0 0.0
2018-Apr-16 09:52N 55°38' E 013°01'0 0.0
2018-Apr-16 09:30N 55°38' E 013°01'0 0.0
2018-Apr-16 09:00N 55°38' E 013°01'0 0.0
2018-Apr-16 08:30N 55°38' E 013°01'0 0.0
2018-Apr-16 08:00N 55°38' E 013°01'0 0.0
2018-Apr-16 07:31N 55°38' E 013°01'0 0.0
2018-Apr-16 07:00N 55°38' E 013°01'0 0.0
2018-Apr-16 06:30N 55°38' E 013°01'2 3.0
2018-Apr-16 06:00N 55°39' E 012°59'3 5.5
2018-Apr-16 05:30N 55°42' E 012°57'0 0.1
2018-Apr-16 05:00N 55°42' E 012°57'0 0.0
2018-Apr-16 04:30N 55°42' E 012°57'0 0.0
2018-Apr-16 04:00N 55°42' E 012°57'0 0.0
2018-Apr-16 03:30N 55°42' E 012°57'0 0.0
2018-Apr-16 02:54N 55°42' E 012°57'0 0.0
2018-Apr-16 02:30N 55°42' E 012°57'0 0.0
2018-Apr-16 01:15N 55°42' E 012°57'0 0.1
2018-Apr-16 01:00N 55°42' E 012°57'0 0.0
2018-Apr-16 00:30N 55°42' E 012°57'0 0.0
2018-Apr-15 22:54N 55°42' E 012°57'0 0.0
2018-Apr-15 22:30N 55°42' E 012°57'0 0.0
2018-Apr-15 21:57N 55°42' E 012°57'0 0.0
2018-Apr-15 17:39N 55°42' E 012°57'0 0.2
2018-Apr-15 17:30N 55°42' E 012°57'1 2.8
2018-Apr-15 17:00N 55°42' E 012°54'611.8
2018-Apr-15 16:30N 55°47' E 012°48'612.5
2018-Apr-15 16:00N 55°52' E 012°41'611.0
2018-Apr-15 15:30N 55°57' E 012°40'611.6
2018-Apr-15 15:00N 56°03' E 012°39'612.0
2018-Apr-15 14:30N 56°07' E 012°31'6111.9
2018-Apr-15 09:21N 57°06' E 011°57'412.7
2018-Apr-15 09:00N 57°10' E 011°54'612.5
2018-Apr-15 08:30N 57°16' E 011°50'612.5
2018-Apr-15 08:00N 57°21' E 011°46'612.2
2018-Apr-15 07:30N 57°27' E 011°41'612.1
2018-Apr-15 07:00N 57°33' E 011°37'612.3
2018-Apr-15 06:30N 57°38' E 011°42'611.4
2018-Apr-15 06:00N 57°41' E 011°51'1 1.2
2018-Apr-15 05:29N 57°41' E 011°52'0 0.0
2018-Apr-15 04:59N 57°41' E 011°52'0 0.0
2018-Apr-15 04:29N 57°41' E 011°52'0 0.0
2018-Apr-15 03:59N 57°41' E 011°52'0 0.0
2018-Apr-15 03:29N 57°41' E 011°52'0 0.0
2018-Apr-15 02:59N 57°41' E 011°52'0 0.0
2018-Apr-15 02:29N 57°41' E 011°52'0 0.0
2018-Apr-15 01:59N 57°41' E 011°52'0 0.0
2018-Apr-15 01:29N 57°41' E 011°52'0 0.0
2018-Apr-15 00:59N 57°41' E 011°52'0 0.0
2018-Apr-15 00:29N 57°41' E 011°52'0 0.0
2018-Apr-14 23:59N 57°41' E 011°52'0 0.0
2018-Apr-14 23:29N 57°41' E 011°52'0 0.0
2018-Apr-14 22:59N 57°41' E 011°52'0 0.0
2018-Apr-14 22:29N 57°41' E 011°52'0 0.0
2018-Apr-14 21:59N 57°41' E 011°52'0 0.0
2018-Apr-14 21:29N 57°41' E 011°52'0 0.0
2018-Apr-14 20:59N 57°41' E 011°52'0 0.0
2018-Apr-14 20:29N 57°41' E 011°52'0 0.0
2018-Apr-14 19:59N 57°41' E 011°52'0 0.0
2018-Apr-14 19:29N 57°41' E 011°52'0 0.0
2018-Apr-14 18:59N 57°41' E 011°52'0 0.0
2018-Apr-14 18:29N 57°41' E 011°52'0 0.0
2018-Apr-14 17:59N 57°41' E 011°52'0 0.0
2018-Apr-14 17:29N 57°41' E 011°52'0 0.0
2018-Apr-14 16:59N 57°41' E 011°52'0 0.0
2018-Apr-14 16:29N 57°41' E 011°52'0 0.0
2018-Apr-14 15:56N 57°41' E 011°52'0 0.0
2018-Apr-14 15:29N 57°41' E 011°52'0 0.0
2018-Apr-14 14:59N 57°41' E 011°52'0 0.0
2018-Apr-14 14:30N 57°41' E 011°52'0 0.0
2018-Apr-14 14:00N 57°41' E 011°52'0 0.0
2018-Apr-14 13:30N 57°41' E 011°52'0 0.3
2018-Apr-14 13:00N 57°41' E 011°52'3 5.3
2018-Apr-14 12:30N 57°40' E 011°47'612.9
2018-Apr-14 12:00N 57°35' E 011°39'3 5.7
2018-Apr-14 11:30N 57°33' E 011°39'0 0.1
2018-Apr-14 10:58N 57°33' E 011°39'0 0.0
2018-Apr-14 10:28N 57°33' E 011°39'0 0.1
2018-Apr-14 09:58N 57°33' E 011°39'0 0.0
2018-Apr-14 09:28N 57°33' E 011°39'0 0.0
2018-Apr-14 08:58N 57°33' E 011°39'0 0.0
2018-Apr-14 08:28N 57°33' E 011°39'0 0.0
2018-Apr-14 07:58N 57°33' E 011°39'0 0.0
2018-Apr-14 07:28N 57°32' E 011°39'0 0.0
2018-Apr-14 06:58N 57°32' E 011°39'0 0.0
2018-Apr-14 06:28N 57°32' E 011°39'0 0.0
2018-Apr-14 05:58N 57°33' E 011°39'0 0.0
2018-Apr-14 05:28N 57°33' E 011°39'0 0.0
2018-Apr-14 04:58N 57°33' E 011°39'0 0.0
2018-Apr-14 04:28N 57°32' E 011°39'0 0.0
2018-Apr-14 03:58N 57°32' E 011°39'0 0.0
2018-Apr-14 03:28N 57°32' E 011°39'0 0.0
2018-Apr-14 02:58N 57°32' E 011°39'0 0.0
2018-Apr-14 02:28N 57°33' E 011°39'0 0.0
2018-Apr-14 01:58N 57°33' E 011°39'0 0.1
2018-Apr-14 01:28N 57°32' E 011°39'0 0.0
2018-Apr-14 00:58N 57°33' E 011°39'0 0.0
2018-Apr-14 00:28N 57°33' E 011°39'0 0.0
2018-Apr-13 23:58N 57°33' E 011°39'0 0.0
2018-Apr-13 23:28N 57°33' E 011°39'0 0.0
2018-Apr-13 22:58N 57°33' E 011°39'0 0.0
2018-Apr-13 22:25N 57°33' E 011°39'0 0.0
2018-Apr-13 21:58N 57°33' E 011°39'0 0.0
2018-Apr-13 21:28N 57°33' E 011°39'0 0.0
2018-Apr-13 20:58N 57°33' E 011°39'0 0.0
2018-Apr-13 20:28N 57°33' E 011°39'0 0.0
2018-Apr-13 19:58N 57°33' E 011°39'0 0.0
2018-Apr-13 19:28N 57°33' E 011°39'0 0.0
2018-Apr-13 18:58N 57°33' E 011°39'0 0.0
2018-Apr-13 18:28N 57°32' E 011°39'0 0.0
2018-Apr-13 17:58N 57°32' E 011°39'0 0.0
2018-Apr-13 17:28N 57°32' E 011°39'0 0.0
2018-Apr-13 16:58N 57°32' E 011°39'0 0.0
2018-Apr-13 16:28N 57°32' E 011°39'0 0.0
2018-Apr-13 15:58N 57°33' E 011°39'0 0.0
2018-Apr-13 15:28N 57°33' E 011°39'0 0.0
2018-Apr-13 14:58N 57°33' E 011°39'0 0.2
2018-Apr-13 14:30N 57°33' E 011°39'2 4.9
2018-Apr-13 14:00N 57°30' E 011°38'5 9.4
2018-Apr-13 13:30N 57°26' E 011°42'5 9.7
2018-Apr-13 13:00N 57°22' E 011°47'5 9.8
2018-Apr-13 12:30N 57°17' E 011°51'5 9.6
2018-Apr-13 12:00N 57°13' E 011°54'5 9.6
2018-Apr-13 11:30N 57°08' E 011°57'5 9.7
2018-Apr-13 10:58N 57°03' E 011°60'56 9.4
2018-Apr-13 05:02N 56°10' E 012°29'011.2
2018-Apr-13 05:00N 56°10' E 012°30'612.2
2018-Apr-13 04:30N 56°05' E 012°36'612.7
2018-Apr-13 04:00N 55°59' E 012°41'611.9
2018-Apr-13 03:31N 55°54' E 012°45'611.5
2018-Apr-13 03:00N 55°48' E 012°47'612.9
2018-Apr-13 02:30N 55°43' E 012°54'510.1
2018-Apr-13 02:00N 55°38' E 012°55'611.5
2018-Apr-13 01:31N 55°34' E 012°48'611.3
2018-Apr-13 01:00N 55°29' E 012°43'611.1
2018-Apr-13 00:30N 55°23' E 012°41'510.1
2018-Apr-13 00:00N 55°18' E 012°41'612.6
2018-Apr-12 23:30N 55°16' E 012°51'  

Dump ship's entire track history